Time;durP1;ratioP1;P1;durP2;ratioP2;P2;SDS_P1;SDS_P2;PMS_P1;PMS_P2;Temp;Humidity;BMP_temperature;BMP_pressure;BME280_temperature;BME280_humidity;BME280_pressure;Samples;Min_cycle;Max_cycle;Signal;HPM_P1;HPM_P2
2022/03/26 00:01:41;;;;;;;3.33;1.80;;;9.20;99.90;;;;;;4384863;32;20518;-62
2022/03/26 00:04:06;;;;;;;1.80;1.10;;;9.30;99.90;;;;;;4405867;32;20077;-61
2022/03/26 00:06:32;;;;;;;1.35;1.20;;;9.30;99.90;;;;;;4414210;32;20066;-63
2022/03/26 00:08:58;;;;;;;2.17;1.58;;;9.30;99.90;;;;;;4387013;32;20082;-62
2022/03/26 00:11:24;;;;;;;3.30;1.40;;;9.20;99.90;;;;;;4414757;32;20518;-63
2022/03/26 00:13:49;;;;;;;1.98;1.40;;;9.20;99.90;;;;;;4400321;32;20070;-62
2022/03/26 00:16:15;;;;;;;6.55;1.98;;;9.20;99.90;;;;;;4413818;32;20083;-62
2022/03/26 00:18:40;;;;;;;1.95;1.62;;;9.10;99.90;;;;;;4414199;32;20481;-62
2022/03/26 00:21:06;;;;;;;1.40;1.30;;;9.10;99.90;;;;;;4414441;32;20078;-61
2022/03/26 00:23:32;;;;;;;21.75;1.50;;;9.20;99.90;;;;;;4399821;32;20085;-61
2022/03/26 00:25:58;;;;;;;15.32;2.25;;;9.30;99.90;;;;;;4399897;32;20116;-61
2022/03/26 00:28:24;;;;;;;4.30;2.33;;;9.30;99.90;;;;;;4412453;32;20228;-61
2022/03/26 00:30:49;;;;;;;24.33;1.95;;;9.20;99.90;;;;;;4413259;32;20054;-61
2022/03/26 00:33:15;;;;;;;2.10;1.77;;;9.20;99.90;;;;;;4414221;32;20117;-61
2022/03/26 00:35:41;;;;;;;4.85;1.40;;;9.20;99.90;;;;;;4413999;32;20084;-62
2022/03/26 00:38:07;;;;;;;1.08;0.98;;;9.20;99.90;;;;;;4414228;32;20115;-61
2022/03/26 00:40:33;;;;;;;5.75;2.10;;;8.90;99.90;;;;;;4414503;32;20077;-61
2022/03/26 00:42:59;;;;;;;5.05;2.08;;;8.70;99.90;;;;;;4386733;32;20059;-61
2022/03/26 00:45:25;;;;;;;3.97;1.90;;;8.60;99.90;;;;;;4399283;32;20086;-61
2022/03/26 00:47:51;;;;;;;7.20;2.10;;;8.60;99.90;;;;;;4398167;32;20053;-61
2022/03/26 00:50:16;;;;;;;1.58;1.37;;;8.50;99.90;;;;;;4399440;32;20066;-61
2022/03/26 00:52:41;;;;;;;4.03;1.87;;;8.40;99.90;;;;;;4398843;32;20065;-61
2022/03/26 00:55:07;;;;;;;0.90;0.90;;;8.40;99.90;;;;;;4398227;32;20066;-62
2022/03/26 00:57:33;;;;;;;0.88;0.88;;;8.50;99.90;;;;;;4398970;32;20054;-61
2022/03/26 00:59:58;;;;;;;2.87;1.35;;;8.50;99.90;;;;;;4399383;32;20780;-62
2022/03/26 01:02:24;;;;;;;5.90;2.05;;;8.70;99.90;;;;;;4398376;32;20120;-61
2022/03/26 01:04:50;;;;;;;4.20;1.83;;;8.70;99.90;;;;;;4385210;32;20082;-61
2022/03/26 01:07:16;;;;;;;4.80;1.40;;;8.90;99.90;;;;;;4398755;32;20070;-61
2022/03/26 01:09:41;;;;;;;2.15;1.08;;;9.00;99.90;;;;;;4398951;32;20150;-61
2022/03/26 01:12:07;;;;;;;1.15;1.05;;;9.00;99.90;;;;;;4398616;32;20066;-61
2022/03/26 01:14:34;;;;;;;6.35;2.60;;;9.10;99.90;;;;;;4399076;32;20066;-60
2022/03/26 01:17:00;;;;;;;1.58;1.48;;;9.10;99.90;;;;;;4384379;32;20122;-61
2022/03/26 01:19:25;;;;;;;15.73;3.12;;;9.10;99.90;;;;;;4398808;32;20066;-61
2022/03/26 01:21:51;;;;;;;3.00;1.77;;;9.10;99.90;;;;;;4398763;32;20082;-61
2022/03/26 01:24:16;;;;;;;4.43;1.30;;;9.10;99.90;;;;;;4398424;32;20066;-61
2022/03/26 01:26:42;;;;;;;5.05;1.52;;;9.10;99.90;;;;;;4398392;32;20078;-61
2022/03/26 01:29:09;;;;;;;7.40;1.80;;;9.00;99.90;;;;;;4398358;32;20134;-60
2022/03/26 01:31:34;;;;;;;1.33;1.20;;;9.00;99.90;;;;;;4397339;32;20077;-62
2022/03/26 01:34:00;;;;;;;2.60;1.02;;;9.10;99.90;;;;;;4399233;32;20125;-62
2022/03/26 01:36:26;;;;;;;4.30;2.35;;;9.00;99.90;;;;;;4401346;32;20529;-61
2022/03/26 01:38:52;;;;;;;3.33;1.73;;;8.90;99.90;;;;;;4400982;32;20079;-62
2022/03/26 01:41:19;;;;;;;16.73;1.95;;;8.90;99.90;;;;;;4403492;32;20120;-63
2022/03/26 01:43:46;;;;;;;6.05;1.85;;;8.90;99.90;;;;;;4400558;32;20100;-64
2022/03/26 01:46:12;;;;;;;6.25;3.17;;;8.90;99.90;;;;;;4415476;32;20120;-63
2022/03/26 01:48:38;;;;;;;19.48;2.25;;;8.90;99.90;;;;;;4402740;32;20069;-64
2022/03/26 01:51:14;;;;;;;2.50;1.20;;;8.90;99.90;;;;;;4416291;32;20526;-63
2022/03/26 01:53:41;;;;;;;1.30;0.68;;;8.90;99.90;;;;;;4416129;32;20065;-61
2022/03/26 01:56:07;;;;;;;8.23;3.53;;;8.90;99.90;;;;;;4416455;32;20529;-61
2022/03/26 01:58:33;;;;;;;3.70;1.15;;;8.90;99.90;;;;;;4416223;32;20074;-61
2022/03/26 02:00:59;;;;;;;6.78;2.47;;;8.90;99.90;;;;;;4390461;32;20521;-61
2022/03/26 02:03:24;;;;;;;2.58;1.42;;;8.90;99.90;;;;;;4416691;32;20065;-61
2022/03/26 02:05:52;;;;;;;5.37;1.83;;;9.00;99.90;;;;;;4387856;32;20066;-62
2022/03/26 02:08:18;;;;;;;1.65;0.93;;;8.90;99.90;;;;;;4401323;32;20065;-60
2022/03/26 02:10:43;;;;;;;5.93;2.03;;;8.90;99.90;;;;;;4400250;32;20533;-63
2022/03/26 02:13:09;;;;;;;1.12;1.00;;;8.80;99.90;;;;;;4398901;32;20085;-63
2022/03/26 02:15:36;;;;;;;4.50;2.15;;;8.80;99.90;;;;;;4400440;32;20058;-62
2022/03/26 02:18:01;;;;;;;1.48;1.10;;;8.80;99.90;;;;;;4400211;32;20071;-64
2022/03/26 02:20:27;;;;;;;3.17;1.45;;;8.80;99.90;;;;;;4400854;32;20057;-63
2022/03/26 02:22:52;;;;;;;4.50;1.87;;;8.70;99.90;;;;;;4399421;32;20069;-61
2022/03/26 02:25:18;;;;;;;2.87;1.80;;;8.70;99.90;;;;;;4400040;32;20079;-61
2022/03/26 02:27:43;;;;;;;3.87;2.53;;;8.70;99.90;;;;;;4398780;32;20070;-62
2022/03/26 02:30:09;;;;;;;2.92;1.87;;;8.60;99.90;;;;;;4400378;32;20061;-62
2022/03/26 02:32:35;;;;;;;4.03;1.48;;;8.50;99.90;;;;;;4401026;32;20526;-62
2022/03/26 02:35:01;;;;;;;1.62;1.37;;;8.50;99.90;;;;;;4399689;32;20059;-62
2022/03/26 02:37:26;;;;;;;1.08;0.98;;;8.50;99.90;;;;;;4398486;32;20383;-62
2022/03/26 02:39:52;;;;;;;1.25;1.12;;;8.60;99.90;;;;;;4400229;32;20115;-63
2022/03/26 02:42:17;;;;;;;8.93;1.65;;;8.50;99.90;;;;;;4409318;32;20131;-62
2022/03/26 02:44:43;;;;;;;7.78;2.60;;;8.60;99.90;;;;;;4414042;32;20464;-62
2022/03/26 02:47:10;;;;;;;4.40;1.23;;;8.50;99.90;;;;;;4400790;32;20112;-61
2022/03/26 02:49:36;;;;;;;4.87;2.08;;;8.50;99.90;;;;;;4402268;32;20410;-63
2022/03/26 02:52:02;;;;;;;4.93;2.50;;;8.50;99.90;;;;;;4415666;32;20086;-62
2022/03/26 02:54:28;;;;;;;3.87;1.80;;;8.40;99.90;;;;;;4400815;32;20591;-61
2022/03/26 02:56:54;;;;;;;2.28;1.77;;;8.50;99.90;;;;;;4400064;32;20542;-62
2022/03/26 02:59:21;;;;;;;2.60;1.45;;;8.50;99.90;;;;;;4391277;32;20058;-62
2022/03/26 03:01:47;;;;;;;6.35;1.62;;;8.50;99.90;;;;;;4399339;32;20066;-62
2022/03/26 03:04:13;;;;;;;1.02;0.90;;;8.40;99.90;;;;;;4374270;32;20117;-62
2022/03/26 03:06:39;;;;;;;2.60;1.52;;;8.40;99.90;;;;;;4385601;32;20066;-62
2022/03/26 03:09:06;;;;;;;1.45;1.35;;;8.30;99.90;;;;;;4398963;32;20062;-62
2022/03/26 03:11:33;;;;;;;6.97;2.55;;;8.30;99.90;;;;;;4386191;32;20066;-63
2022/03/26 03:13:58;;;;;;;0.95;0.85;;;8.20;99.90;;;;;;4372813;32;20522;-62
2022/03/26 03:16:24;;;;;;;7.65;2.83;;;8.10;99.90;;;;;;4399532;32;20118;-62
2022/03/26 03:18:50;;;;;;;8.27;1.80;;;8.20;99.90;;;;;;4399663;32;20062;-62
2022/03/26 03:21:16;;;;;;;2.25;1.62;;;8.20;99.90;;;;;;4387177;32;20061;-61
2022/03/26 03:23:41;;;;;;;13.15;1.77;;;8.20;99.90;;;;;;4399692;32;20074;-62
2022/03/26 03:26:07;;;;;;;17.45;3.37;;;8.30;99.90;;;;;;4385201;32;20062;-61
2022/03/26 03:28:33;;;;;;;5.62;2.15;;;8.20;99.90;;;;;;4399094;32;20057;-62
2022/03/26 03:30:58;;;;;;;5.30;1.83;;;8.20;99.90;;;;;;4398751;32;20120;-62
2022/03/26 03:33:25;;;;;;;2.87;1.40;;;8.30;99.90;;;;;;4399154;32;20058;-63
2022/03/26 03:35:50;;;;;;;5.95;2.15;;;8.20;99.90;;;;;;4399844;32;20514;-62
2022/03/26 03:38:16;;;;;;;4.28;2.22;;;8.10;99.90;;;;;;4400226;32;20061;-63
2022/03/26 03:40:41;;;;;;;7.95;2.40;;;8.10;99.90;;;;;;4399211;32;20070;-62
2022/03/26 03:43:07;;;;;;;6.72;2.72;;;8.10;99.90;;;;;;4386308;32;20195;-62
2022/03/26 03:45:34;;;;;;;33.10;3.30;;;8.00;99.90;;;;;;4414427;32;20143;-63
2022/03/26 03:47:59;;;;;;;3.10;1.90;;;8.10;99.90;;;;;;4400429;32;20062;-62
2022/03/26 03:50:25;;;;;;;5.95;2.08;;;8.00;99.90;;;;;;4401366;32;20069;-62
2022/03/26 03:52:51;;;;;;;3.05;2.05;;;8.00;99.90;;;;;;4414117;32;20077;-63
2022/03/26 03:55:16;;;;;;;4.05;2.03;;;8.00;99.90;;;;;;4413810;32;20412;-62
2022/03/26 03:57:43;;;;;;;8.55;3.45;;;8.00;99.90;;;;;;4413214;32;20124;-62
2022/03/26 04:00:11;;;;;;;23.70;2.03;;;8.00;99.90;;;;;;4396905;32;20068;-62
2022/03/26 04:02:37;;;;;;;14.13;3.20;;;7.90;99.90;;;;;;4385266;32;20066;-62
2022/03/26 04:05:03;;;;;;;2.97;1.77;;;8.00;99.90;;;;;;4398670;32;20513;-62
2022/03/26 04:07:29;;;;;;;6.53;1.90;;;8.00;99.90;;;;;;4414526;32;20069;-62
2022/03/26 04:09:54;;;;;;;1.67;1.35;;;8.00;99.90;;;;;;4414537;32;20076;-61
2022/03/26 04:12:19;;;;;;;10.73;2.97;;;8.00;99.90;;;;;;4414141;32;20074;-61
2022/03/26 04:14:45;;;;;;;10.85;3.55;;;8.00;99.90;;;;;;4413549;32;20069;-62
2022/03/26 04:17:12;;;;;;;1.40;1.25;;;7.90;99.90;;;;;;4412602;32;20390;-62
2022/03/26 04:19:38;;;;;;;14.13;1.90;;;7.90;99.90;;;;;;4388514;32;20065;-62
2022/03/26 04:22:05;;;;;;;3.30;1.70;;;7.90;99.90;;;;;;4413709;32;20505;-63
2022/03/26 04:24:31;;;;;;;12.57;1.77;;;8.00;99.90;;;;;;4414044;32;20061;-62
2022/03/26 04:26:56;;;;;;;4.53;2.17;;;8.00;99.90;;;;;;4413899;32;20438;-62
2022/03/26 04:29:21;;;;;;;9.98;2.17;;;7.90;99.90;;;;;;4414212;32;20079;-62
2022/03/26 04:31:47;;;;;;;3.90;2.08;;;7.80;99.90;;;;;;4414088;32;20454;-62
2022/03/26 04:34:13;;;;;;;10.60;1.75;;;7.80;99.90;;;;;;4414039;32;20074;-63
2022/03/26 04:36:38;;;;;;;5.68;1.73;;;7.80;99.90;;;;;;4414272;32;20069;-62
2022/03/26 04:39:04;;;;;;;6.40;1.58;;;7.80;99.90;;;;;;4387058;32;20061;-62
2022/03/26 04:41:29;;;;;;;1.17;1.08;;;7.80;99.90;;;;;;4413160;32;20142;-62
2022/03/26 04:43:55;;;;;;;2.17;1.23;;;7.70;99.90;;;;;;4411944;32;20173;-62
2022/03/26 04:46:20;;;;;;;1.58;1.35;;;7.70;99.90;;;;;;4399738;32;20057;-62
2022/03/26 04:48:46;;;;;;;1.85;1.05;;;7.70;99.90;;;;;;4399180;32;20137;-61
2022/03/26 04:51:13;;;;;;;3.37;1.60;;;7.60;99.90;;;;;;4413722;32;20062;-61
2022/03/26 04:53:39;;;;;;;2.75;1.30;;;7.60;99.90;;;;;;4414750;32;20105;-61
2022/03/26 04:56:04;;;;;;;1.37;1.08;;;7.60;99.90;;;;;;4412901;32;20066;-62
2022/03/26 04:58:30;;;;;;;2.47;1.48;;;7.60;99.90;;;;;;4413245;32;20082;-61
2022/03/26 05:00:55;;;;;;;1.35;1.20;;;7.50;99.90;;;;;;4414228;32;20081;-61
2022/03/26 05:03:21;;;;;;;2.80;1.58;;;7.50;99.90;;;;;;4412693;32;20539;-61
2022/03/26 05:05:46;;;;;;;11.12;1.95;;;7.60;99.90;;;;;;4401563;32;20078;-61
2022/03/26 05:08:12;;;;;;;3.80;2.35;;;7.60;99.90;;;;;;4405889;32;20120;-61
2022/03/26 05:10:37;;;;;;;2.08;1.37;;;7.60;99.90;;;;;;4414263;32;20057;-61
2022/03/26 05:13:03;;;;;;;5.75;0.90;;;7.60;99.90;;;;;;4400100;32;20059;-61
2022/03/26 05:15:29;;;;;;;11.82;3.70;;;7.50;99.90;;;;;;4398250;32;20545;-60
2022/03/26 05:17:56;;;;;;;3.40;1.50;;;7.50;99.90;;;;;;4392987;32;20065;-61
2022/03/26 05:20:23;;;;;;;13.48;2.37;;;7.50;99.90;;;;;;4413634;32;20466;-61
2022/03/26 05:22:49;;;;;;;2.20;1.55;;;7.40;99.90;;;;;;4413984;32;20058;-61
2022/03/26 05:25:16;;;;;;;7.62;1.33;;;7.40;99.90;;;;;;4413390;32;20065;-61
2022/03/26 05:27:44;;;;;;;3.12;1.73;;;7.30;99.90;;;;;;4399485;32;20066;-61
2022/03/26 05:30:10;;;;;;;4.75;1.67;;;7.40;99.90;;;;;;4412341;32;20078;-61
2022/03/26 05:32:35;;;;;;;2.70;1.67;;;7.40;99.90;;;;;;4412609;32;20121;-62
2022/03/26 05:35:01;;;;;;;18.35;2.12;;;7.40;99.90;;;;;;4399937;32;20140;-63
2022/03/26 05:37:26;;;;;;;11.23;2.47;;;7.40;99.90;;;;;;4413979;32;20058;-62
2022/03/26 05:39:52;;;;;;;2.85;1.00;;;7.40;99.90;;;;;;4413355;32;20066;-62
2022/03/26 05:42:18;;;;;;;1.62;1.52;;;7.40;99.90;;;;;;4398708;32;20066;-62
2022/03/26 05:44:44;;;;;;;19.15;2.60;;;7.50;99.90;;;;;;4398157;32;20424;-62
2022/03/26 05:47:10;;;;;;;4.40;2.40;;;7.50;99.90;;;;;;4412414;32;20157;-62
2022/03/26 05:49:35;;;;;;;3.72;1.80;;;7.60;99.90;;;;;;4398851;32;20066;-62
2022/03/26 05:52:01;;;;;;;6.43;1.80;;;7.60;99.90;;;;;;4399305;32;20066;-62
2022/03/26 05:54:26;;;;;;;2.95;1.98;;;7.70;99.90;;;;;;4414004;32;20073;-62
2022/03/26 05:56:52;;;;;;;6.80;1.40;;;7.70;99.90;;;;;;4412972;32;20053;-62
2022/03/26 05:59:20;;;;;;;1.85;0.90;;;7.70;99.90;;;;;;4403090;32;20078;-62
2022/03/26 06:01:48;;;;;;;1.77;1.33;;;7.70;99.90;;;;;;4384477;32;20066;-62
2022/03/26 06:04:14;;;;;;;4.22;1.67;;;7.80;99.90;;;;;;4384985;32;20082;-61
2022/03/26 06:06:40;;;;;;;1.55;1.30;;;7.90;99.90;;;;;;4397927;32;20058;-62
2022/03/26 06:09:05;;;;;;;5.97;2.12;;;7.90;99.90;;;;;;4398082;32;20089;-62
2022/03/26 06:11:30;;;;;;;4.97;2.40;;;8.00;99.90;;;;;;4398296;32;20114;-62
2022/03/26 06:13:57;;;;;;;2.12;1.55;;;8.00;99.90;;;;;;4396335;32;20069;-62
2022/03/26 06:16:23;;;;;;;2.55;1.55;;;8.00;99.90;;;;;;4396402;32;20074;-62
2022/03/26 06:18:48;;;;;;;10.38;2.05;;;8.10;99.90;;;;;;4397683;32;20070;-62
2022/03/26 06:21:14;;;;;;;4.15;1.40;;;8.20;99.90;;;;;;4399324;32;20059;-62
2022/03/26 06:23:39;;;;;;;3.62;2.55;;;8.30;99.90;;;;;;4386933;32;20082;-62
2022/03/26 06:26:05;;;;;;;4.55;2.72;;;8.40;99.90;;;;;;4386025;32;20053;-62
2022/03/26 06:28:30;;;;;;;2.65;1.45;;;8.40;99.90;;;;;;4386370;32;20579;-63
2022/03/26 06:30:57;;;;;;;3.33;1.77;;;8.40;99.90;;;;;;4399530;32;20074;-62
2022/03/26 06:33:22;;;;;;;2.28;0.90;;;8.50;99.90;;;;;;4399681;32;20113;-63
2022/03/26 06:35:48;;;;;;;6.60;2.05;;;8.50;99.90;;;;;;4399936;32;20509;-62
2022/03/26 06:38:14;;;;;;;3.92;1.62;;;8.60;99.90;;;;;;4386162;32;20070;-62
2022/03/26 06:40:40;;;;;;;2.20;1.77;;;8.70;99.90;;;;;;4387034;32;20178;-62
2022/03/26 06:43:07;;;;;;;1.92;1.27;;;8.60;99.90;;;;;;4388688;32;20112;-62
2022/03/26 06:45:33;;;;;;;4.07;1.33;;;8.70;99.90;;;;;;4401031;32;20065;-62
2022/03/26 06:47:58;;;;;;;2.08;1.60;;;8.80;99.90;;;;;;4401632;32;20070;-62
2022/03/26 06:50:24;;;;;;;7.70;2.65;;;8.80;99.90;;;;;;4400864;32;20153;-62
2022/03/26 06:52:50;;;;;;;3.50;1.62;;;8.80;99.90;;;;;;4414690;32;20077;-62
2022/03/26 06:55:15;;;;;;;3.33;2.17;;;8.90;99.90;;;;;;4402137;32;20054;-62
2022/03/26 06:57:41;;;;;;;6.22;2.67;;;9.00;99.90;;;;;;4401366;32;20575;-62
2022/03/26 07:00:09;;;;;;;2.45;1.33;;;9.00;99.90;;;;;;4401279;32;20078;-62
2022/03/26 07:02:35;;;;;;;0.80;0.80;;;9.10;99.90;;;;;;4400230;32;20419;-61
2022/03/26 07:05:02;;;;;;;11.65;2.85;;;9.20;99.90;;;;;;4398719;32;20053;-62
2022/03/26 07:07:27;;;;;;;3.58;1.35;;;9.30;99.90;;;;;;4385281;32;20078;-62
2022/03/26 07:09:53;;;;;;;2.60;1.25;;;9.40;99.90;;;;;;4386084;32;20117;-62
2022/03/26 07:12:18;;;;;;;3.10;1.62;;;9.50;99.90;;;;;;4398405;32;20082;-61
2022/03/26 07:14:44;;;;;;;2.80;1.65;;;9.70;99.90;;;;;;4398471;32;20480;-62
2022/03/26 07:17:09;;;;;;;8.52;2.17;;;9.80;99.90;;;;;;4398281;32;20067;-62
2022/03/26 07:19:38;;;;;;;3.15;1.65;;;9.90;99.90;;;;;;4398894;32;20058;-61
2022/03/26 07:22:04;;;;;;;24.50;2.12;;;10.00;99.90;;;;;;4385724;32;20086;-63
2022/03/26 07:24:30;;;;;;;4.18;1.08;;;10.10;99.90;;;;;;4399687;32;20058;-61
2022/03/26 07:26:56;;;;;;;4.00;1.73;;;10.20;99.90;;;;;;4398100;32;20118;-61
2022/03/26 07:29:21;;;;;;;7.57;2.03;;;10.20;99.90;;;;;;4398517;32;20459;-62
2022/03/26 07:31:47;;;;;;;1.50;1.20;;;10.30;99.90;;;;;;4399025;32;20062;-62
2022/03/26 07:34:13;;;;;;;1.40;1.30;;;10.30;99.90;;;;;;4399772;32;20084;-62
2022/03/26 07:36:39;;;;;;;16.17;2.25;;;10.30;99.90;;;;;;4397527;32;82211;-61
2022/03/26 07:39:04;;;;;;;3.25;1.80;;;10.40;99.90;;;;;;4399730;32;20050;-62
2022/03/26 07:41:30;;;;;;;1.75;1.23;;;10.50;99.90;;;;;;4398589;32;20050;-62
2022/03/26 07:43:55;;;;;;;3.17;1.62;;;10.40;99.90;;;;;;4399252;32;20058;-61
2022/03/26 07:46:21;;;;;;;5.55;1.85;;;10.40;99.90;;;;;;4399479;32;20058;-62
2022/03/26 07:48:47;;;;;;;2.62;1.52;;;10.40;99.90;;;;;;4399373;32;20545;-62
2022/03/26 07:51:13;;;;;;;5.70;2.28;;;10.50;99.90;;;;;;4398954;32;20086;-62
2022/03/26 07:53:38;;;;;;;6.72;1.65;;;10.60;99.90;;;;;;4398219;32;20055;-62
2022/03/26 07:56:04;;;;;;;3.83;2.55;;;10.60;99.90;;;;;;4398945;32;20527;-62
2022/03/26 07:58:29;;;;;;;2.83;1.15;;;10.70;99.90;;;;;;4403373;32;20087;-62
2022/03/26 08:00:55;;;;;;;5.28;1.55;;;10.80;99.90;;;;;;4415055;32;20050;-62
2022/03/26 08:03:20;;;;;;;2.83;1.83;;;10.90;99.90;;;;;;4413308;32;20073;-62
2022/03/26 08:05:46;;;;;;;2.10;1.45;;;11.00;99.90;;;;;;4414569;32;20070;-62
2022/03/26 08:08:11;;;;;;;1.98;1.48;;;11.00;99.90;;;;;;4400120;32;20070;-63
2022/03/26 08:10:37;;;;;;;2.67;1.23;;;11.00;99.90;;;;;;4414860;32;20057;-62
2022/03/26 08:13:03;;;;;;;5.15;1.58;;;11.10;99.90;;;;;;4400048;32;20089;-62
2022/03/26 08:15:29;;;;;;;3.20;2.33;;;11.30;99.90;;;;;;4414435;32;20070;-62
2022/03/26 08:17:54;;;;;;;0.65;0.65;;;11.40;99.90;;;;;;4413996;32;20129;-62
2022/03/26 08:20:20;;;;;;;1.98;1.27;;;11.50;99.90;;;;;;4413464;32;20106;-61
2022/03/26 08:22:45;;;;;;;7.75;1.73;;;11.60;99.90;;;;;;4412919;32;20090;-62
2022/03/26 08:25:11;;;;;;;2.80;1.25;;;11.70;99.90;;;;;;4414170;32;20445;-63
2022/03/26 08:27:38;;;;;;;3.35;1.35;;;11.80;99.90;;;;;;4414095;32;20073;-60
2022/03/26 08:30:07;;;;;;;2.47;0.80;;;11.90;99.90;;;;;;4414854;32;20453;-63
2022/03/26 08:32:32;;;;;;;3.75;2.08;;;12.00;99.90;;;;;;4414237;32;20082;-62
2022/03/26 08:34:57;;;;;;;8.70;1.17;;;12.20;99.90;;;;;;4412891;32;20057;-60
2022/03/26 08:37:23;;;;;;;3.20;1.45;;;12.40;99.90;;;;;;4413193;32;20066;-61
2022/03/26 08:39:49;;;;;;;4.72;2.70;;;12.50;99.90;;;;;;4413118;32;20061;-61
2022/03/26 08:42:14;;;;;;;1.90;1.45;;;12.60;99.90;;;;;;4414254;32;20061;-61
2022/03/26 08:44:40;;;;;;;3.25;1.10;;;12.60;99.90;;;;;;4412102;32;20113;-62
2022/03/26 08:47:06;;;;;;;3.70;1.45;;;12.60;99.90;;;;;;4412863;32;20486;-60
2022/03/26 08:49:33;;;;;;;2.83;1.58;;;12.70;99.90;;;;;;4399844;32;20069;-62
2022/03/26 08:51:58;;;;;;;4.90;1.60;;;12.80;99.90;;;;;;4413007;32;20057;-61
2022/03/26 08:54:24;;;;;;;3.00;1.12;;;12.90;99.90;;;;;;4399093;32;20078;-62
2022/03/26 08:56:50;;;;;;;1.45;1.12;;;13.10;99.90;;;;;;4413341;32;20129;-62
2022/03/26 08:59:15;;;;;;;1.67;0.93;;;13.10;99.90;;;;;;4404440;32;20058;-61
2022/03/26 09:01:40;;;;;;;11.32;1.58;;;13.20;99.90;;;;;;4399050;32;20062;-62
2022/03/26 09:04:06;;;;;;;6.18;1.27;;;13.30;99.90;;;;;;4385471;32;20053;-62
2022/03/26 09:06:32;;;;;;;4.45;1.77;;;13.50;99.90;;;;;;4398841;32;20121;-61
2022/03/26 09:08:58;;;;;;;1.77;1.40;;;13.60;99.90;;;;;;4385304;32;20061;-62
2022/03/26 09:11:23;;;;;;;7.78;1.10;;;13.70;99.90;;;;;;4397810;32;20076;-62
2022/03/26 09:13:50;;;;;;;1.00;0.88;;;13.80;99.90;;;;;;4383092;32;20484;-62
2022/03/26 09:16:17;;;;;;;2.87;1.15;;;13.90;99.90;;;;;;4397459;32;20345;-63
2022/03/26 09:18:42;;;;;;;0.98;0.98;;;14.00;99.90;;;;;;4398529;32;20420;-62
2022/03/26 09:21:08;;;;;;;1.80;1.20;;;14.00;99.90;;;;;;4398799;32;20054;-62
2022/03/26 09:23:33;;;;;;;9.30;2.12;;;14.20;99.90;;;;;;4409584;32;20058;-61
2022/03/26 09:26:00;;;;;;;0.98;0.88;;;14.20;99.90;;;;;;4411159;32;20077;-61
2022/03/26 09:28:26;;;;;;;0.60;0.60;;;14.20;99.90;;;;;;4398018;32;20061;-62
2022/03/26 09:30:51;;;;;;;2.72;1.05;;;14.30;99.90;;;;;;4407330;32;20078;-62
2022/03/26 09:33:17;;;;;;;3.50;1.45;;;14.10;99.90;;;;;;4412419;32;20400;-61
2022/03/26 09:35:42;;;;;;;6.15;1.05;;;14.00;99.90;;;;;;4398865;32;20062;-61
2022/03/26 09:38:08;;;;;;;10.48;1.50;;;14.20;99.90;;;;;;4399962;32;20054;-61
2022/03/26 09:40:35;;;;;;;3.30;1.37;;;14.50;99.90;;;;;;4413796;32;20439;-61
2022/03/26 09:43:01;;;;;;;1.67;0.70;;;14.50;99.90;;;;;;4413084;32;20075;-62
2022/03/26 09:45:27;;;;;;;4.97;1.60;;;14.60;99.90;;;;;;4386371;32;20124;-62
2022/03/26 09:47:53;;;;;;;2.70;0.77;;;14.90;99.90;;;;;;4412034;32;20509;-62
2022/03/26 09:50:19;;;;;;;3.37;1.62;;;15.10;99.90;;;;;;4412382;32;20061;-62
2022/03/26 09:52:45;;;;;;;0.60;0.60;;;15.10;99.90;;;;;;4412588;32;20066;-62
2022/03/26 09:55:12;;;;;;;1.52;0.75;;;15.10;99.90;;;;;;4414774;32;20394;-63
2022/03/26 09:57:39;;;;;;;1.65;1.25;;;14.90;99.90;;;;;;4415463;32;20116;-62
2022/03/26 10:00:05;;;;;;;2.25;0.98;;;14.90;99.90;;;;;;4387657;32;20327;-62
2022/03/26 10:02:30;;;;;;;1.73;0.93;;;14.70;99.90;;;;;;4400949;32;20062;-63
2022/03/26 10:04:56;;;;;;;5.20;1.35;;;14.70;99.90;;;;;;4399872;32;20435;-62
2022/03/26 10:07:30;;;;;;;0.90;0.77;;;14.80;99.90;;;;;;4400720;32;20058;-62
2022/03/26 10:09:56;;;;;;;0.85;0.82;;;14.70;99.90;;;;;;4387423;32;20472;-62
2022/03/26 10:12:22;;;;;;;3.12;1.25;;;14.70;99.90;;;;;;4400229;32;20138;-62
2022/03/26 10:14:51;;;;;;;10.63;1.05;;;14.70;99.90;;;;;;4387134;32;20065;-62
2022/03/26 10:17:19;;;;;;;5.25;1.08;;;14.60;99.90;;;;;;4386548;32;20087;-64
2022/03/26 10:20:05;;;;;;;0.95;0.88;;;14.60;99.90;;;;;;4361527;32;20081;-62
2022/03/26 10:22:33;;;;;;;1.37;1.27;;;14.70;99.90;;;;;;4386488;32;20501;-62
2022/03/26 10:25:03;;;;;;;2.22;1.45;;;14.80;99.90;;;;;;4399414;32;20066;-63
2022/03/26 10:27:33;;;;;;;4.68;0.90;;;14.70;99.90;;;;;;4386027;32;20521;-62
2022/03/26 10:29:59;;;;;;;1.20;1.10;;;14.50;99.90;;;;;;4386610;32;20509;-62
2022/03/26 10:32:43;;;;;;;0.68;0.68;;;14.40;99.90;;;;;;4385670;32;20078;-62
2022/03/26 10:35:10;;;;;;;2.83;1.40;;;14.40;99.90;;;;;;4387412;32;20077;-63
2022/03/26 10:37:46;;;;;;;0.75;0.75;;;14.20;99.90;;;;;;4385783;32;20054;-62
2022/03/26 10:40:16;;;;;;;2.22;0.90;;;14.10;99.90;;;;;;4400157;32;20100;-62
2022/03/26 10:42:42;;;;;;;1.58;0.98;;;14.20;99.90;;;;;;4393479;32;20428;-62
2022/03/26 10:45:14;;;;;;;1.85;0.95;;;14.30;99.90;;;;;;4400614;32;20074;-62
2022/03/26 10:47:39;;;;;;;1.55;0.88;;;14.50;99.90;;;;;;4398775;32;20053;-62
2022/03/26 10:50:06;;;;;;;1.33;1.23;;;14.60;99.90;;;;;;4398585;32;20062;-61
2022/03/26 10:52:31;;;;;;;1.20;0.90;;;14.70;99.90;;;;;;4399130;32;20109;-62
2022/03/26 10:54:57;;;;;;;0.73;0.73;;;14.70;99.90;;;;;;4399303;32;20129;-62
2022/03/26 10:57:24;;;;;;;5.82;1.10;;;14.50;99.90;;;;;;4399673;32;20062;-62
2022/03/26 10:59:51;;;;;;;0.75;0.75;;;14.40;99.90;;;;;;4388859;32;20066;-62
2022/03/26 11:02:16;;;;;;;6.22;1.45;;;14.60;99.90;;;;;;4385493;32;20077;-63
2022/03/26 11:04:42;;;;;;;6.68;1.42;;;14.70;99.90;;;;;;4399969;32;20062;-62
2022/03/26 11:07:11;;;;;;;4.50;1.70;;;14.80;99.90;;;;;;4399252;32;20514;-63
2022/03/26 11:09:37;;;;;;;1.05;1.00;;;14.90;99.90;;;;;;4400348;32;20066;-62
2022/03/26 11:12:04;;;;;;;1.77;1.12;;;14.90;99.90;;;;;;4400190;32;20067;-62
2022/03/26 11:14:34;;;;;;;7.72;0.98;;;14.90;99.90;;;;;;4385985;32;20567;-62
2022/03/26 11:17:12;;;;;;;0.95;0.90;;;14.70;99.90;;;;;;4399105;32;20164;-64
2022/03/26 11:19:54;;;;;;;1.95;0.95;;;14.80;99.90;;;;;;4399797;32;20265;-61
2022/03/26 11:22:32;;;;;;;0.77;0.68;;;14.70;99.90;;;;;;4400033;32;20071;-64
2022/03/26 11:25:30;;;;;;;2.33;1.48;;;14.60;99.90;;;;;;4386424;32;20063;-62
2022/03/26 11:28:23;;;;;;;2.87;1.33;;;14.50;99.90;;;;;;4389923;32;20082;-62
2022/03/26 11:30:54;;;;;;;4.10;1.73;;;14.50;99.90;;;;;;4388489;32;20133;-62
2022/03/26 11:33:20;;;;;;;2.22;1.35;;;14.50;99.90;;;;;;4399753;32;20476;-62
2022/03/26 11:36:03;;;;;;;4.68;0.80;;;14.60;99.90;;;;;;4400508;32;20075;-62
2022/03/26 11:38:30;;;;;;;1.27;0.98;;;14.70;99.90;;;;;;4386100;32;20049;-62
2022/03/26 11:41:00;;;;;;;1.98;1.27;;;14.90;99.90;;;;;;4374227;32;20062;-62
2022/03/26 11:43:47;;;;;;;2.05;1.33;;;14.80;99.90;;;;;;4414734;32;20057;-62
2022/03/26 11:50:46;;;;;;;2.03;0.90;;;14.90;99.90;;;;;;4402612;32;20112;-63
2022/03/26 11:52:22;;;;;;;2.10;1.42;;;14.90;99.90;;;;;;4402272;32;20136;-62
2022/03/26 11:55:09;;;;;;;2.55;1.10;;;14.90;99.90;;;;;;4401550;32;20062;-61
2022/03/26 11:57:34;;;;;;;1.80;1.40;;;14.80;99.90;;;;;;4402271;32;20069;-60
2022/03/26 12:00:00;;;;;;;2.67;1.02;;;14.90;99.90;;;;;;4400179;32;20125;-61
2022/03/26 12:02:28;;;;;;;2.45;1.33;;;15.10;99.90;;;;;;4400152;32;20061;-61
2022/03/26 12:04:58;;;;;;;4.50;1.27;;;15.40;99.90;;;;;;4386734;32;20424;-60
2022/03/26 12:07:27;;;;;;;1.37;1.02;;;15.30;99.90;;;;;;4385009;32;20070;-61
2022/03/26 12:10:10;;;;;;;2.40;1.30;;;15.30;99.90;;;;;;4385009;32;20062;-61
2022/03/26 12:12:57;;;;;;;1.48;1.20;;;15.40;99.90;;;;;;4397452;32;20116;-61
2022/03/26 12:15:25;;;;;;;1.12;1.00;;;15.40;99.90;;;;;;4387039;32;20058;-61
2022/03/26 12:17:53;;;;;;;1.48;0.77;;;15.30;99.90;;;;;;4371602;32;20062;-61
2022/03/26 12:20:25;;;;;;;1.30;1.08;;;15.40;99.90;;;;;;4399392;32;20062;-62
2022/03/26 12:23:03;;;;;;;4.80;1.45;;;15.30;99.90;;;;;;4398392;32;20054;-61
2022/03/26 12:25:34;;;;;;;1.45;0.80;;;15.40;99.90;;;;;;4386882;32;20074;-61
2022/03/26 12:28:00;;;;;;;;;;;15.30;99.90;;;;;;4399927;32;20580;-61
2022/03/26 12:30:26;;;;;;;5.50;1.52;;;15.20;99.90;;;;;;4414692;32;19949;-61
2022/03/26 12:32:51;;;;;;;0.90;0.82;;;15.10;99.90;;;;;;4400969;32;20065;-61
2022/03/26 12:35:18;;;;;;;4.40;1.45;;;15.20;99.90;;;;;;4414291;32;20468;-63
2022/03/26 12:37:48;;;;;;;1.37;1.27;;;15.30;99.90;;;;;;4387452;32;20062;-63
2022/03/26 12:40:13;;;;;;;5.57;1.42;;;15.20;99.90;;;;;;4400320;32;20066;-61
2022/03/26 12:42:39;;;;;;;2.60;1.58;;;15.10;99.90;;;;;;4413172;32;20503;-62
2022/03/26 12:45:19;;;;;;;16.37;1.55;;;15.10;99.90;;;;;;4413045;32;20062;-61
2022/03/26 12:47:47;;;;;;;1.58;1.05;;;15.00;99.90;;;;;;4413873;32;20176;-62
2022/03/26 12:50:21;;;;;;;0.80;0.80;;;15.10;99.90;;;;;;4413535;32;20068;-62
2022/03/26 12:52:47;;;;;;;3.60;1.62;;;15.10;99.90;;;;;;4400535;32;20054;-61
2022/03/26 12:55:13;;;;;;;4.07;1.00;;;15.00;99.90;;;;;;4400165;32;20082;-60